Time,TemperatureF,DewpointF,PressureIn,WindDirection,WindDirectionDegrees,WindSpeedMPH,WindSpeedGustMPH,Humidity,HourlyPrecipIn,Conditions,Clouds,dailyrainin,SolarRadiationWatts/m^2,SoftwareType,DateUTC
2013-09-02 00:00:00,73.0,54.0,-100.00,SSW,204,5.0,9.0,51,-99.99,,,0.00,0.000000,,2013-09-02 07:00:00,
2013-09-02 00:42:00,73.0,54.0,-100.00,SSW,204,5.0,9.0,51,-99.99,,,0.00,0.000000,,2013-09-02 07:42:00,
2013-09-02 00:52:00,73.0,54.0,-100.00,SSW,204,5.0,9.0,51,-99.99,,,0.00,0.000000,,2013-09-02 07:52:00,
2013-09-02 01:00:00,73.0,55.0,-100.00,South,176,3.0,5.0,53,-99.99,,,0.00,0.000000,,2013-09-02 08:00:00,
2013-09-02 01:42:00,73.0,55.0,-100.00,South,176,3.0,5.0,53,-99.99,,,0.00,0.000000,,2013-09-02 08:42:00,
2013-09-02 01:52:00,73.0,55.0,-100.00,South,176,3.0,5.0,53,-99.99,,,0.00,0.000000,,2013-09-02 08:52:00,
2013-09-02 02:00:00,73.0,56.0,-100.00,SW,216,3.0,7.0,54,-99.99,,,0.00,0.000000,,2013-09-02 09:00:00,
2013-09-02 02:43:00,73.0,56.0,-100.00,SW,216,3.0,7.0,54,-99.99,,,0.00,0.000000,,2013-09-02 09:43:00,
2013-09-02 02:53:00,73.0,56.0,-100.00,SW,216,3.0,7.0,54,-99.99,,,0.00,0.000000,,2013-09-02 09:53:00,
2013-09-02 03:00:00,71.0,56.0,-100.00,SSW,206,6.0,10.0,58,-99.99,,,0.00,0.000000,,2013-09-02 10:00:00,
2013-09-02 03:42:00,71.0,56.0,-100.00,SSW,206,6.0,10.0,58,-99.99,,,0.00,0.000000,,2013-09-02 10:42:00,
2013-09-02 03:53:00,71.0,56.0,-100.00,SSW,206,6.0,10.0,58,-99.99,,,0.00,0.000000,,2013-09-02 10:53:00,
2013-09-02 04:00:00,68.0,54.0,-100.00,SSW,193,3.0,5.0,60,-99.99,,,0.00,0.000000,,2013-09-02 11:00:00,
2013-09-02 04:42:00,68.0,54.0,-100.00,SSW,193,3.0,5.0,60,-99.99,,,0.00,0.000000,,2013-09-02 11:42:00,
2013-09-02 04:52:00,68.0,54.0,-100.00,SSW,193,3.0,5.0,60,-99.99,,,0.00,0.000000,,2013-09-02 11:52:00,
2013-09-02 05:00:00,64.0,54.0,-100.00,East,95,3.0,4.0,70,-99.99,,,0.00,0.000000,,2013-09-02 12:00:00,
2013-09-02 05:43:00,64.0,54.0,-100.00,East,95,3.0,4.0,70,-99.99,,,0.00,0.000000,,2013-09-02 12:43:00,
2013-09-02 05:52:00,64.0,54.0,-100.00,East,95,3.0,4.0,70,-99.99,,,0.00,0.000000,,2013-09-02 12:52:00,
2013-09-02 06:00:00,66.0,53.0,-100.00,SE,128,3.0,4.0,64,-99.99,,,0.00,0.000000,,2013-09-02 13:00:00,
2013-09-02 06:42:00,66.0,53.0,-100.00,SE,128,3.0,4.0,64,-99.99,,,0.00,0.000000,,2013-09-02 13:42:00,
2013-09-02 06:52:00,66.0,53.0,-100.00,SE,128,3.0,4.0,64,-99.99,,,0.00,0.000000,,2013-09-02 13:52:00,
2013-09-02 07:00:00,64.0,55.0,-100.00,WSW,254,1.0,2.0,72,-99.99,,,0.00,10.920000,,2013-09-02 14:00:00,
2013-09-02 07:43:00,64.0,55.0,-100.00,WSW,254,1.0,2.0,72,-99.99,,,0.00,10.920000,,2013-09-02 14:43:00,
2013-09-02 07:52:00,64.0,55.0,-100.00,WSW,254,1.0,2.0,72,-99.99,,,0.00,10.920000,,2013-09-02 14:52:00,
2013-09-02 08:00:00,70.0,57.0,-100.00,WNW,285,1.0,2.0,63,-99.99,,,0.00,200.130005,,2013-09-02 15:00:00,
2013-09-02 08:44:00,70.0,57.0,-100.00,WNW,285,1.0,2.0,63,-99.99,,,0.00,200.130005,,2013-09-02 15:44:00,
2013-09-02 08:55:00,70.0,57.0,-100.00,WNW,285,1.0,2.0,63,-99.99,,,0.00,200.130005,,2013-09-02 15:55:00,
2013-09-02 09:00:00,76.0,58.0,-100.00,South,181,5.0,8.0,53,-99.99,,,0.00,413.859985,,2013-09-02 16:00:00,
2013-09-02 09:53:00,76.0,58.0,-100.00,South,181,5.0,8.0,53,-99.99,,,0.00,413.859985,,2013-09-02 16:53:00,
2013-09-02 10:00:00,78.0,57.0,-100.00,SSW,210,4.0,7.0,47,-99.99,,,0.00,540.539978,,2013-09-02 17:00:00,
2013-09-02 10:52:00,78.0,57.0,-100.00,SSW,210,4.0,7.0,47,-99.99,,,0.00,540.539978,,2013-09-02 17:52:00,
2013-09-02 11:00:00,83.0,55.0,-100.00,SSE,152,4.0,8.0,38,-99.99,,,0.00,803.309998,,2013-09-02 18:00:00,
2013-09-02 11:42:00,83.0,55.0,-100.00,SSE,152,4.0,8.0,38,-99.99,,,0.00,803.309998,,2013-09-02 18:42:00,
2013-09-02 11:52:00,83.0,55.0,-100.00,SSE,152,4.0,8.0,38,-99.99,,,0.00,803.309998,,2013-09-02 18:52:00,
2013-09-02 12:00:00,81.0,52.0,-100.00,SSE,166,5.0,10.0,35,-99.99,,,0.00,297.519989,,2013-09-02 19:00:00,
2013-09-02 12:42:00,81.0,52.0,-100.00,SSE,166,5.0,10.0,35,-99.99,,,0.00,297.519989,,2013-09-02 19:42:00,
2013-09-02 12:52:00,81.0,52.0,-100.00,SSE,166,5.0,10.0,35,-99.99,,,0.00,297.519989,,2013-09-02 19:52:00,
2013-09-02 13:00:00,83.0,50.0,-100.00,West,260,3.0,8.0,31,-99.99,,,0.00,526.359985,,2013-09-02 20:00:00,
2013-09-02 13:42:00,83.0,50.0,-100.00,West,260,3.0,8.0,31,-99.99,,,0.00,526.359985,,2013-09-02 20:42:00,
2013-09-02 13:52:00,83.0,50.0,-100.00,West,260,3.0,8.0,31,-99.99,,,0.00,526.359985,,2013-09-02 20:52:00,
2013-09-02 14:00:00,87.0,50.0,-100.00,SW,231,5.0,10.0,28,-99.99,,,0.00,647.580017,,2013-09-02 21:00:00,
2013-09-02 14:44:00,87.0,50.0,-100.00,SW,231,5.0,10.0,28,-99.99,,,0.00,647.580017,,2013-09-02 21:44:00,
2013-09-02 14:55:00,87.0,50.0,-100.00,SW,231,5.0,10.0,28,-99.99,,,0.00,647.580017,,2013-09-02 21:55:00,
2013-09-02 15:00:00,87.0,48.0,-100.00,West,268,5.0,9.0,26,-99.99,,,0.00,584.349976,,2013-09-02 22:00:00,
2013-09-02 15:43:00,87.0,48.0,-100.00,West,268,5.0,9.0,26,-99.99,,,0.00,584.349976,,2013-09-02 22:43:00,
2013-09-02 15:54:00,87.0,48.0,-100.00,West,268,5.0,9.0,26,-99.99,,,0.00,584.349976,,2013-09-02 22:54:00,
2013-09-02 16:00:00,89.0,46.0,-100.00,WNW,296,7.0,13.0,22,-99.99,,,0.00,793.780029,,2013-09-02 23:00:00,
2013-09-02 16:53:00,89.0,46.0,-100.00,WNW,296,7.0,13.0,22,-99.99,,,0.00,793.780029,,2013-09-02 23:53:00,
2013-09-02 17:00:00,88.0,45.0,-100.00,WNW,299,8.0,13.0,22,-99.99,,,0.00,313.209991,,2013-09-03 00:00:00,
2013-09-02 17:52:00,88.0,45.0,-100.00,WNW,299,8.0,13.0,22,-99.99,,,0.00,313.209991,,2013-09-03 00:52:00,
2013-09-02 18:00:00,85.0,48.0,-100.00,NW,307,11.0,19.0,27,-99.99,,,0.00,130.050003,,2013-09-03 01:00:00,
2013-09-02 18:42:00,85.0,48.0,-100.00,NW,307,11.0,19.0,27,-99.99,,,0.00,130.050003,,2013-09-03 01:42:00,
2013-09-02 18:52:00,85.0,48.0,-100.00,NW,307,11.0,19.0,27,-99.99,,,0.00,130.050003,,2013-09-03 01:52:00,
2013-09-02 19:00:00,83.0,48.0,-100.00,NW,322,6.0,10.0,29,-99.99,,,0.00,14.300000,,2013-09-03 02:00:00,
2013-09-02 19:42:00,83.0,48.0,-100.00,NW,322,6.0,10.0,29,-99.99,,,0.00,14.300000,,2013-09-03 02:42:00,
2013-09-02 19:52:00,83.0,48.0,-100.00,NW,322,6.0,10.0,29,-99.99,,,0.00,14.300000,,2013-09-03 02:52:00,
2013-09-02 20:00:00,81.0,49.0,-100.00,NW,323,6.0,11.0,33,-99.99,,,0.00,0.000000,,2013-09-03 03:00:00,
2013-09-02 20:45:00,81.0,49.0,-100.00,NW,323,6.0,11.0,33,-99.99,,,0.00,0.000000,,2013-09-03 03:45:00,
2013-09-02 20:55:00,81.0,49.0,-100.00,NW,323,6.0,11.0,33,-99.99,,,0.00,0.000000,,2013-09-03 03:55:00,
2013-09-02 21:00:00,77.0,52.0,-100.00,NW,322,5.0,8.0,41,-99.99,,,0.00,0.000000,,2013-09-03 04:00:00,
2013-09-02 21:44:00,77.0,52.0,-100.00,NW,322,5.0,8.0,41,-99.99,,,0.00,0.000000,,2013-09-03 04:44:00,
2013-09-02 21:53:00,77.0,52.0,-100.00,NW,322,5.0,8.0,41,-99.99,,,0.00,0.000000,,2013-09-03 04:53:00,
2013-09-02 22:00:00,76.0,52.0,-100.00,North,355,6.0,12.0,43,-99.99,,,0.00,0.000000,,2013-09-03 05:00:00,
2013-09-02 22:43:00,76.0,52.0,-100.00,North,355,6.0,12.0,43,-99.99,,,0.00,0.000000,,2013-09-03 05:43:00,
2013-09-02 22:52:00,76.0,52.0,-100.00,North,355,6.0,12.0,43,-99.99,,,0.00,0.000000,,2013-09-03 05:52:00,
2013-09-02 23:00:00,73.0,52.0,-100.00,NW,310,6.0,11.0,47,-99.99,,,0.00,0.000000,,2013-09-03 06:00:00,
2013-09-02 23:43:00,73.0,52.0,-100.00,NW,310,6.0,11.0,47,-99.99,,,0.00,0.000000,,2013-09-03 06:43:00,
2013-09-02 23:52:00,73.0,52.0,-100.00,NW,310,6.0,11.0,47,-99.99,,,0.00,0.000000,,2013-09-03 06:52:00,